Terminal Aerodrome Forecast
Issued by NWS

Home | Current Version | Previous Version | Text Only | Print | Product List | Glossary On
Versions: 1 2 3 4 5 6 7 8 9 10 11 12 13 14 15 16 17 18 19 20 21 22 23 24 25 26 27 28 29
000
FTUS45 KGJT 232334
TAFASE
TAF
KASE 232334Z 2400/2424 34008KT P6SM -SN SCT025 BKN030
      TEMPO 2400/2403 3SM -SN SCT015 BKN025
     FM240300 21005KT P6SM VCSH SCT030 BKN050
     FM240800 21005KT 4SM BR VCSH BKN020 OVC050
     FM241400 31005KT P6SM VCSH BKN030 OVC050=

USA.gov is the U.S. government's official web portal to all federal, state and local government web resources and services.